Time;durP1;ratioP1;P1;durP2;ratioP2;P2;SDS_P1;SDS_P2;PMS_P1;PMS_P2;Temp;Humidity;BMP_temperature;BMP_pressure;BME280_temperature;BME280_humidity;BME280_pressure;Samples;Min_cycle;Max_cycle;Signal;HPM_P1;HPM_P2
2022/07/09 00:00:04;;;;;;;6.68;2.55;;;16.10;99.90;;;;;;5038791;28;20168;-74
2022/07/09 00:02:30;;;;;;;8.00;2.35;;;16.10;99.90;;;;;;5030203;28;20212;-74
2022/07/09 00:04:55;;;;;;;5.40;2.17;;;16.10;99.90;;;;;;5030623;28;20877;-75
2022/07/09 00:07:21;;;;;;;6.30;2.30;;;16.10;99.90;;;;;;5030361;28;20212;-75
2022/07/09 00:09:46;;;;;;;4.68;2.47;;;16.10;99.90;;;;;;5030175;28;20287;-76
2022/07/09 00:12:12;;;;;;;4.47;1.85;;;16.00;99.90;;;;;;5030954;28;20550;-75
2022/07/09 00:14:37;;;;;;;6.18;2.28;;;16.00;99.90;;;;;;5038035;28;20646;-74
2022/07/09 00:17:03;;;;;;;5.05;2.25;;;15.90;99.90;;;;;;5012643;28;20208;-75
2022/07/09 00:19:29;;;;;;;7.10;2.17;;;15.90;99.90;;;;;;5029858;28;20298;-75
2022/07/09 00:21:54;;;;;;;6.38;2.60;;;15.90;99.90;;;;;;5030321;28;20216;-75
2022/07/09 00:24:20;;;;;;;5.80;2.60;;;15.90;99.90;;;;;;5030400;28;20176;-75
2022/07/09 00:26:46;;;;;;;5.60;2.45;;;15.80;99.90;;;;;;5042446;28;20172;-76
2022/07/09 00:29:11;;;;;;;5.55;2.50;;;15.80;99.90;;;;;;5034783;28;20204;-75
2022/07/09 00:31:37;;;;;;;9.93;2.65;;;15.70;99.90;;;;;;5044154;28;20226;-74
2022/07/09 00:34:02;;;;;;;7.38;2.65;;;15.70;99.90;;;;;;5054006;28;20222;-75
2022/07/09 00:36:28;;;;;;;4.50;2.30;;;15.60;99.90;;;;;;5053797;28;20219;-75
2022/07/09 00:38:53;;;;;;;6.38;2.78;;;15.60;99.90;;;;;;5053998;28;20606;-75
2022/07/09 00:41:19;;;;;;;4.63;2.25;;;15.60;99.90;;;;;;5052330;28;20203;-75
2022/07/09 00:43:49;;;;;;;6.60;2.22;;;15.50;99.90;;;;;;5033767;28;20200;-76
2022/07/09 00:46:16;;;;;;;8.05;2.28;;;15.50;99.90;;;;;;5015678;28;20228;-76
2022/07/09 00:48:42;;;;;;;9.05;5.35;;;15.50;99.90;;;;;;5033328;28;20579;-73
2022/07/09 00:51:09;;;;;;;10.77;3.85;;;15.50;99.90;;;;;;5034371;28;20211;-74
2022/07/09 00:53:35;;;;;;;13.20;2.92;;;15.50;99.90;;;;;;5043580;28;20298;-73
2022/07/09 00:56:02;;;;;;;17.23;4.78;;;15.40;99.90;;;;;;5052819;28;20208;-74
2022/07/09 00:58:28;;;;;;;12.48;3.22;;;15.40;99.90;;;;;;5053084;28;20680;-75
2022/07/09 01:00:55;;;;;;;9.63;4.20;;;15.40;99.90;;;;;;5034485;28;20208;-76
2022/07/09 01:03:20;;;;;;;4.70;2.45;;;15.30;99.90;;;;;;5015684;28;20183;-75
2022/07/09 01:05:46;;;;;;;6.45;3.13;;;15.30;99.90;;;;;;5025737;28;20168;-75
2022/07/09 01:08:12;;;;;;;7.82;2.70;;;15.30;99.90;;;;;;5040344;28;20282;-71
2022/07/09 01:10:38;;;;;;;8.77;3.28;;;15.20;99.90;;;;;;5052982;28;20626;-73
2022/07/09 01:13:04;;;;;;;6.07;2.78;;;15.20;99.90;;;;;;5051664;28;20204;-74
2022/07/09 01:15:31;;;;;;;7.80;2.97;;;15.20;99.90;;;;;;5035267;28;20180;-71
2022/07/09 01:17:58;;;;;;;6.88;2.83;;;15.10;99.90;;;;;;5033332;28;20641;-73
2022/07/09 01:20:25;;;;;;;6.22;2.58;;;15.20;99.90;;;;;;5032609;28;20791;-74
2022/07/09 01:22:51;;;;;;;4.60;2.28;;;15.10;99.90;;;;;;5037186;28;20206;-73
2022/07/09 01:25:18;;;;;;;7.32;2.78;;;15.10;99.90;;;;;;5052911;28;20196;-74
2022/07/09 01:27:44;;;;;;;7.50;2.85;;;15.10;99.90;;;;;;5052622;28;20207;-74
2022/07/09 01:30:10;;;;;;;6.28;2.38;;;15.10;99.90;;;;;;5053221;28;20554;-74
2022/07/09 01:32:36;;;;;;;5.53;2.65;;;15.10;99.90;;;;;;5052438;28;20211;-73
2022/07/09 01:35:02;;;;;;;5.72;2.97;;;15.10;99.90;;;;;;5052743;28;20221;-74
2022/07/09 01:37:27;;;;;;;9.90;3.30;;;14.90;99.90;;;;;;5052705;28;20760;-74
2022/07/09 01:39:53;;;;;;;6.88;3.17;;;14.90;99.90;;;;;;5052281;28;20287;-74
2022/07/09 01:42:19;;;;;;;11.18;3.22;;;14.90;99.90;;;;;;5042894;28;20242;-74
2022/07/09 01:44:48;;;;;;;8.15;3.00;;;14.80;99.90;;;;;;5032695;28;20224;-74
2022/07/09 01:47:16;;;;;;;4.75;2.90;;;14.80;99.90;;;;;;5048060;28;20573;-74
2022/07/09 01:49:42;;;;;;;7.70;3.00;;;14.80;99.90;;;;;;5052022;28;20204;-74
2022/07/09 01:52:08;;;;;;;8.27;3.22;;;14.80;99.90;;;;;;5071789;22;20303;-72
2022/07/09 01:54:34;;;;;;;6.55;2.58;;;14.90;99.90;;;;;;5052813;28;20233;-71
2022/07/09 01:56:59;;;;;;;9.23;2.80;;;14.80;99.90;;;;;;5060762;28;20172;-70
2022/07/09 01:59:25;;;;;;;7.72;2.90;;;14.80;99.90;;;;;;5051714;28;20704;-72
2022/07/09 02:01:50;;;;;;;10.70;3.25;;;14.70;99.90;;;;;;5069778;28;20241;-71
2022/07/09 02:04:16;;;;;;;6.45;2.47;;;14.70;99.90;;;;;;5072142;28;20256;-71
2022/07/09 02:06:41;;;;;;;8.20;3.22;;;14.70;99.90;;;;;;5071854;28;20206;-70
2022/07/09 02:09:07;;;;;;;11.00;3.20;;;14.70;99.90;;;;;;5046918;28;20171;-71
2022/07/09 02:11:32;;;;;;;9.45;3.97;;;14.60;99.90;;;;;;5034091;28;20302;-72
2022/07/09 02:13:58;;;;;;;7.65;3.00;;;14.60;99.90;;;;;;5051861;28;20232;-71
2022/07/09 02:16:24;;;;;;;8.48;3.33;;;14.60;99.90;;;;;;5033878;28;20226;-69
2022/07/09 02:18:50;;;;;;;8.00;3.03;;;14.60;99.90;;;;;;5063733;28;20636;-71
2022/07/09 02:21:16;;;;;;;6.80;3.45;;;14.50;99.90;;;;;;5054070;28;20664;-71
2022/07/09 02:23:41;;;;;;;9.02;3.53;;;14.50;99.90;;;;;;5071076;28;20202;-71
2022/07/09 02:26:07;;;;;;;7.25;3.40;;;14.40;99.90;;;;;;5064506;28;20238;-72
2022/07/09 02:28:33;;;;;;;13.20;3.65;;;14.40;99.90;;;;;;5051309;28;20214;-71
2022/07/09 02:30:58;;;;;;;9.40;3.83;;;14.40;99.90;;;;;;5047965;28;20196;-72
2022/07/09 02:33:24;;;;;;;11.40;3.38;;;14.40;99.90;;;;;;5055018;28;20199;-73
2022/07/09 02:35:49;;;;;;;10.85;3.90;;;14.50;99.90;;;;;;5059847;28;20183;-71
2022/07/09 02:38:15;;;;;;;7.07;3.78;;;14.40;99.90;;;;;;5059180;28;20207;-71
2022/07/09 02:40:41;;;;;;;5.25;3.17;;;14.50;99.90;;;;;;5061764;28;20695;-72
2022/07/09 02:43:06;;;;;;;7.10;3.55;;;14.60;99.90;;;;;;5062827;28;20203;-71
2022/07/09 02:45:32;;;;;;;5.10;2.95;;;14.70;99.90;;;;;;5043194;28;20174;-72
2022/07/09 02:47:57;;;;;;;8.15;3.58;;;14.60;99.90;;;;;;5059617;28;20231;-71
2022/07/09 02:50:23;;;;;;;7.25;3.88;;;14.60;99.90;;;;;;5059191;28;20214;-71
2022/07/09 02:52:48;;;;;;;6.50;3.13;;;14.60;99.90;;;;;;5062409;28;20222;-71
2022/07/09 02:55:14;;;;;;;11.48;3.63;;;14.70;99.90;;;;;;5062388;28;20683;-72
2022/07/09 02:57:40;;;;;;;7.18;3.70;;;14.80;99.90;;;;;;5059634;28;20298;-71
2022/07/09 03:00:06;;;;;;;6.85;3.45;;;14.80;99.90;;;;;;5041378;28;20175;-72
2022/07/09 03:02:31;;;;;;;8.05;3.20;;;14.90;99.90;;;;;;5033774;28;20207;-71
2022/07/09 03:04:57;;;;;;;9.25;4.15;;;14.90;99.90;;;;;;5062437;28;20249;-71
2022/07/09 03:07:23;;;;;;;12.15;4.18;;;14.90;99.90;;;;;;5044135;28;20604;-71
2022/07/09 03:09:49;;;;;;;9.38;3.67;;;14.90;99.90;;;;;;5058403;28;20223;-71
2022/07/09 03:12:14;;;;;;;8.48;4.15;;;14.90;99.90;;;;;;5059348;28;20254;-72
2022/07/09 03:14:40;;;;;;;5.80;3.28;;;14.90;99.90;;;;;;5058703;28;20876;-71
2022/07/09 03:17:05;;;;;;;10.55;3.67;;;14.90;99.90;;;;;;5047264;28;20249;-71
2022/07/09 03:19:31;;;;;;;8.95;4.45;;;14.90;99.90;;;;;;5043680;28;20238;-72
2022/07/09 03:21:58;;;;;;;7.22;3.40;;;14.90;99.90;;;;;;5061937;28;20715;-71
2022/07/09 03:24:23;;;;;;;4.38;3.33;;;14.90;99.90;;;;;;5061922;28;20251;-70
2022/07/09 03:26:49;;;;;;;7.13;3.63;;;14.90;99.90;;;;;;5044570;28;20174;-71
2022/07/09 03:29:15;;;;;;;7.68;3.97;;;14.90;99.90;;;;;;5062675;28;20207;-72
2022/07/09 03:31:40;;;;;;;6.60;3.60;;;15.00;99.90;;;;;;5058563;28;20243;-71
2022/07/09 03:34:06;;;;;;;7.78;3.70;;;14.90;99.90;;;;;;5057945;28;20641;-70
2022/07/09 03:36:32;;;;;;;6.05;3.70;;;14.90;99.90;;;;;;5041877;28;20206;-71
2022/07/09 03:38:57;;;;;;;5.63;3.30;;;14.90;99.90;;;;;;5044432;28;20258;-71
2022/07/09 03:41:23;;;;;;;6.35;3.47;;;15.00;99.90;;;;;;5043306;28;20218;-71
2022/07/09 03:43:49;;;;;;;9.75;3.70;;;15.00;99.90;;;;;;5058689;28;20200;-71
2022/07/09 03:46:14;;;;;;;5.45;3.13;;;15.00;99.90;;;;;;5058431;28;20203;-71
2022/07/09 03:48:40;;;;;;;7.20;2.90;;;15.10;99.90;;;;;;5060602;28;20307;-70
2022/07/09 03:51:06;;;;;;;8.52;3.47;;;15.10;99.90;;;;;;5062567;28;20182;-72
2022/07/09 03:53:32;;;;;;;8.68;3.10;;;15.10;99.90;;;;;;5042294;28;20291;-73
2022/07/09 03:55:57;;;;;;;11.07;3.60;;;15.10;99.90;;;;;;5040753;28;20275;-72
2022/07/09 03:58:23;;;;;;;8.32;3.10;;;15.10;99.90;;;;;;5058415;28;20207;-72
2022/07/09 04:00:49;;;;;;;7.07;3.35;;;15.20;99.90;;;;;;5057974;28;20223;-72
2022/07/09 04:03:14;;;;;;;8.23;3.42;;;15.30;99.90;;;;;;5039985;28;20202;-72
2022/07/09 04:05:41;;;;;;;6.50;2.92;;;15.30;99.90;;;;;;5043685;28;21285;-71
2022/07/09 04:08:07;;;;;;;9.23;3.42;;;15.30;99.90;;;;;;5062434;28;20580;-72
2022/07/09 04:10:32;;;;;;;5.70;3.03;;;15.30;99.90;;;;;;5063884;28;20211;-72
2022/07/09 04:12:58;;;;;;;7.63;3.40;;;15.20;99.90;;;;;;5048058;28;20772;-72
2022/07/09 04:15:24;;;;;;;9.93;3.45;;;15.20;99.90;;;;;;5065406;28;20225;-71
2022/07/09 04:17:49;;;;;;;6.55;3.03;;;15.30;99.90;;;;;;5044655;28;20629;-72
2022/07/09 04:20:15;;;;;;;5.28;2.97;;;15.30;99.90;;;;;;5062091;28;20205;-72
2022/07/09 04:22:40;;;;;;;7.13;3.13;;;15.30;99.90;;;;;;5064586;28;20245;-72
2022/07/09 04:25:06;;;;;;;5.78;2.65;;;15.30;99.90;;;;;;5059395;28;20729;-72
2022/07/09 04:27:32;;;;;;;6.53;2.95;;;15.30;99.90;;;;;;5063512;28;20179;-72
2022/07/09 04:29:57;;;;;;;4.53;2.63;;;15.30;99.90;;;;;;5065855;28;20556;-72
2022/07/09 04:32:23;;;;;;;8.70;3.10;;;15.30;99.90;;;;;;5060752;28;20255;-72
2022/07/09 04:34:49;;;;;;;6.75;2.65;;;15.30;99.90;;;;;;5063033;28;20634;-70
2022/07/09 04:37:14;;;;;;;7.28;2.50;;;15.40;99.90;;;;;;5062374;28;20207;-72
2022/07/09 04:39:40;;;;;;;7.78;3.20;;;15.40;99.90;;;;;;5046122;28;20707;-72
2022/07/09 04:42:05;;;;;;;5.57;2.60;;;15.40;99.90;;;;;;5065560;28;20584;-72
2022/07/09 04:44:31;;;;;;;6.95;2.92;;;15.50;99.90;;;;;;5063748;28;20207;-72
2022/07/09 04:46:57;;;;;;;9.32;2.97;;;15.40;99.90;;;;;;5042247;28;20286;-73
2022/07/09 04:49:24;;;;;;;7.10;2.67;;;15.50;99.90;;;;;;5053106;28;20206;-71
2022/07/09 04:51:49;;;;;;;5.50;2.30;;;15.40;99.90;;;;;;5053230;28;20598;-72
2022/07/09 04:54:15;;;;;;;7.03;3.00;;;15.50;99.90;;;;;;5053769;28;20175;-72
2022/07/09 04:56:40;;;;;;;6.72;2.92;;;15.60;99.90;;;;;;5053381;28;20612;-72
2022/07/09 04:59:06;;;;;;;6.03;2.85;;;15.50;99.90;;;;;;5035159;28;20204;-72
2022/07/09 05:01:32;;;;;;;6.47;2.88;;;15.40;99.90;;;;;;5062772;28;20269;-72
2022/07/09 05:03:58;;;;;;;6.93;3.10;;;15.50;99.90;;;;;;5055246;28;20286;-72
2022/07/09 05:06:25;;;;;;;7.30;3.45;;;15.50;99.90;;;;;;5073211;28;20519;-71
2022/07/09 05:08:50;;;;;;;8.18;2.90;;;15.50;99.90;;;;;;5073264;28;20537;-73
2022/07/09 05:11:16;;;;;;;7.78;3.30;;;15.40;99.90;;;;;;5072912;28;20198;-70
2022/07/09 05:13:41;;;;;;;8.20;3.05;;;15.40;99.90;;;;;;5072906;28;20631;-71
2022/07/09 05:16:08;;;;;;;8.13;3.55;;;15.50;99.90;;;;;;5071878;28;20206;-73
2022/07/09 05:18:34;;;;;;;7.18;3.53;;;15.50;99.90;;;;;;5055638;28;20222;-72
2022/07/09 05:21:00;;;;;;;5.65;3.30;;;15.50;99.90;;;;;;5053411;28;20707;-72
2022/07/09 05:23:25;;;;;;;4.93;2.90;;;15.50;99.90;;;;;;5052511;28;20207;-72
2022/07/09 05:25:51;;;;;;;6.55;3.72;;;15.70;99.90;;;;;;5053009;28;20688;-72
2022/07/09 05:28:17;;;;;;;9.20;2.70;;;15.70;99.90;;;;;;5052587;28;20286;-72
2022/07/09 05:30:43;;;;;;;6.03;3.13;;;15.80;99.90;;;;;;5063995;28;20199;-71
2022/07/09 05:33:09;;;;;;;6.72;3.05;;;15.90;99.90;;;;;;5073208;28;20272;-72
2022/07/09 05:35:34;;;;;;;6.78;2.78;;;16.00;99.90;;;;;;5072963;28;20262;-71
2022/07/09 05:38:00;;;;;;;5.72;2.50;;;16.10;99.90;;;;;;5072472;28;20205;-72
2022/07/09 05:40:26;;;;;;;6.40;2.40;;;16.30;99.90;;;;;;5072393;28;20691;-72
2022/07/09 05:42:51;;;;;;;5.95;2.97;;;16.40;99.90;;;;;;5054320;28;20273;-72
2022/07/09 05:45:17;;;;;;;6.75;2.83;;;16.60;99.90;;;;;;5073064;28;20171;-72
2022/07/09 05:47:43;;;;;;;8.63;2.90;;;16.70;99.90;;;;;;5044451;28;20203;-71
2022/07/09 05:50:09;;;;;;;6.35;2.90;;;16.80;99.90;;;;;;5052353;28;20254;-72
2022/07/09 05:52:34;;;;;;;6.53;2.50;;;16.80;99.90;;;;;;5051887;28;20220;-71
2022/07/09 05:55:00;;;;;;;5.55;2.90;;;17.00;99.90;;;;;;5052035;28;20222;-72
2022/07/09 05:57:26;;;;;;;6.10;3.08;;;17.20;99.90;;;;;;5052311;28;20537;-71
2022/07/09 05:59:51;;;;;;;7.80;2.70;;;17.10;99.90;;;;;;5052384;28;20176;-72
2022/07/09 06:02:18;;;;;;;4.93;2.85;;;17.10;99.90;;;;;;5068142;28;20265;-72
2022/07/09 06:04:44;;;;;;;5.88;2.78;;;17.10;99.90;;;;;;5071915;28;20235;-72
2022/07/09 06:07:10;;;;;;;7.45;3.15;;;17.30;99.90;;;;;;5072147;28;20238;-72
2022/07/09 06:09:35;;;;;;;6.82;2.75;;;17.50;99.90;;;;;;5071628;28;20187;-71
2022/07/09 06:12:01;;;;;;;6.13;3.00;;;17.50;99.90;;;;;;5072446;28;20679;-71
2022/07/09 06:14:26;;;;;;;6.43;3.22;;;17.50;99.90;;;;;;5070977;28;20278;-72
2022/07/09 06:16:54;;;;;;;5.32;2.92;;;17.50;99.90;;;;;;5052363;28;20207;-72
2022/07/09 06:19:19;;;;;;;5.03;3.00;;;17.40;99.90;;;;;;5059853;28;20194;-72
2022/07/09 06:21:45;;;;;;;6.30;3.03;;;17.30;99.90;;;;;;5071453;28;20268;-72
2022/07/09 06:24:11;;;;;;;5.72;3.00;;;17.40;99.90;;;;;;5072091;28;20175;-72
2022/07/09 06:26:36;;;;;;;6.38;3.20;;;17.60;99.90;;;;;;5071486;28;20557;-70
2022/07/09 06:29:02;;;;;;;7.80;3.08;;;18.00;99.90;;;;;;5070993;28;20218;-73
2022/07/09 06:31:28;;;;;;;7.82;2.97;;;18.20;99.90;;;;;;5071407;28;20231;-72
2022/07/09 06:33:53;;;;;;;6.40;3.03;;;18.10;99.90;;;;;;5071466;28;20303;-72
2022/07/09 06:36:19;;;;;;;8.90;3.15;;;17.90;99.90;;;;;;5071830;28;20183;-72
2022/07/09 06:41:29;;;;;;;6.85;3.15;;;17.70;99.90;;;;;;5071134;28;20226;-72
2022/07/09 06:43:54;;;;;;;4.30;2.60;;;17.50;99.90;;;;;;5053522;28;20199;-72
2022/07/09 06:46:20;;;;;;;7.32;3.22;;;17.70;99.90;;;;;;5071238;28;20277;-72
2022/07/09 06:48:45;;;;;;;4.70;2.80;;;17.60;99.90;;;;;;5055384;28;20286;-70
2022/07/09 06:51:11;;;;;;;9.85;3.25;;;17.80;99.90;;;;;;5071629;28;20183;-71
2022/07/09 06:53:37;;;;;;;6.78;2.92;;;18.00;99.90;;;;;;5071197;28;20286;-71
2022/07/09 06:56:03;;;;;;;4.78;2.30;;;18.30;99.90;;;;;;5071238;28;20710;-72
2022/07/09 06:58:28;;;;;;;6.40;2.60;;;18.30;99.90;;;;;;5070670;28;20214;-72
2022/07/09 07:00:54;;;;;;;7.30;2.65;;;18.60;99.90;;;;;;5040320;28;20223;-73
2022/07/09 07:03:19;;;;;;;7.55;3.05;;;18.50;99.90;;;;;;5050801;28;20203;-72
2022/07/09 07:05:45;;;;;;;6.07;2.60;;;18.50;99.90;;;;;;5051545;28;20195;-72
2022/07/09 07:08:10;;;;;;;4.72;2.30;;;18.60;99.90;;;;;;5050524;28;20215;-72
2022/07/09 07:10:36;;;;;;;6.30;2.38;;;18.70;99.90;;;;;;5059342;28;20207;-71
2022/07/09 07:13:02;;;;;;;7.68;2.58;;;18.80;99.90;;;;;;5051015;28;20207;-72
2022/07/09 07:15:27;;;;;;;6.32;2.60;;;18.80;99.90;;;;;;5050667;28;20639;-70
2022/07/09 07:17:53;;;;;;;4.45;2.30;;;18.80;99.90;;;;;;5033719;28;20182;-72
2022/07/09 07:20:22;;;;;;;5.22;2.30;;;18.80;99.90;;;;;;5058548;28;20252;-72
2022/07/09 07:22:48;;;;;;;7.55;2.60;;;18.60;99.90;;;;;;5070881;28;20207;-73
2022/07/09 07:25:13;;;;;;;4.03;2.40;;;18.50;99.90;;;;;;5045631;28;20326;-72
2022/07/09 07:27:39;;;;;;;8.23;4.97;;;18.50;99.90;;;;;;5050646;28;20290;-72
2022/07/09 07:30:05;;;;;;;8.80;5.47;;;18.50;99.90;;;;;;5050893;28;20167;-71
2022/07/09 07:32:31;;;;;;;4.75;2.55;;;18.60;99.90;;;;;;5050410;28;20228;-72
2022/07/09 07:34:56;;;;;;;5.72;2.72;;;18.70;99.90;;;;;;5064085;28;20226;-73
2022/07/09 07:37:22;;;;;;;6.25;2.97;;;18.90;99.90;;;;;;5052497;28;20207;-71
2022/07/09 07:39:47;;;;;;;5.38;2.42;;;19.10;99.90;;;;;;5069813;28;20203;-72
2022/07/09 07:42:15;;;;;;;7.85;2.85;;;19.10;99.90;;;;;;5070820;28;20205;-71
2022/07/09 07:44:40;;;;;;;5.03;2.33;;;19.20;99.90;;;;;;5070362;28;20207;-72
2022/07/09 07:47:06;;;;;;;5.70;2.53;;;19.30;99.90;;;;;;5065349;28;20241;-72
2022/07/09 07:49:31;;;;;;;5.07;2.63;;;19.10;99.90;;;;;;5050290;28;20206;-72
2022/07/09 07:51:57;;;;;;;6.45;2.22;;;19.30;99.90;;;;;;5036042;22;20600;-73
2022/07/09 07:54:23;;;;;;;5.38;2.20;;;19.30;99.90;;;;;;5038572;28;20275;-74
2022/07/09 07:56:49;;;;;;;7.72;2.17;;;19.20;99.90;;;;;;5054433;28;20188;-73
2022/07/09 07:59:16;;;;;;;4.72;2.08;;;19.20;99.90;;;;;;5070164;28;20211;-72
2022/07/09 08:01:41;;;;;;;9.70;2.40;;;18.80;99.90;;;;;;5051154;28;20246;-73
2022/07/09 08:04:07;;;;;;;4.93;2.60;;;18.70;99.90;;;;;;5030429;28;20224;-73
2022/07/09 08:06:32;;;;;;;6.32;2.60;;;18.40;99.90;;;;;;5012483;28;20195;-73
2022/07/09 08:08:58;;;;;;;4.72;2.38;;;18.40;99.90;;;;;;5030819;28;20201;-71
2022/07/09 08:11:24;;;;;;;5.22;2.65;;;18.40;99.90;;;;;;5028472;28;20202;-72
2022/07/09 08:13:49;;;;;;;7.80;3.17;;;18.30;99.90;;;;;;5030253;28;20203;-72
2022/07/09 08:16:15;;;;;;;7.40;3.17;;;18.40;99.90;;;;;;5030286;28;20200;-73
2022/07/09 08:18:40;;;;;;;7.88;3.40;;;18.60;99.90;;;;;;5032642;28;20933;-72
2022/07/09 08:21:06;;;;;;;6.55;2.60;;;18.80;99.90;;;;;;5050795;28;20241;-73
2022/07/09 08:23:31;;;;;;;9.00;2.85;;;18.90;99.90;;;;;;5050030;28;20208;-74
2022/07/09 08:25:57;;;;;;;3.67;2.92;;;19.10;99.90;;;;;;5028560;28;20711;-73
2022/07/09 08:28:23;;;;;;;4.75;2.55;;;19.20;99.90;;;;;;5030358;28;20201;-74
2022/07/09 08:30:48;;;;;;;5.75;2.95;;;19.40;99.90;;;;;;5012707;28;20200;-74
2022/07/09 08:33:14;;;;;;;4.40;2.42;;;19.50;99.90;;;;;;5030635;28;20207;-74
2022/07/09 08:35:39;;;;;;;3.78;2.60;;;19.50;99.90;;;;;;5030096;28;20255;-73
2022/07/09 08:38:05;;;;;;;6.20;3.00;;;19.40;99.90;;;;;;5030015;28;20200;-73
2022/07/09 08:40:31;;;;;;;8.70;3.05;;;19.60;99.90;;;;;;5030215;28;20279;-75
2022/07/09 08:43:00;;;;;;;4.53;2.53;;;19.80;99.90;;;;;;5012652;28;20208;-76
2022/07/09 08:45:29;;;;;;;4.55;2.50;;;19.60;99.90;;;;;;5030703;28;20169;-74
2022/07/09 08:47:55;;;;;;;8.50;2.95;;;19.90;99.90;;;;;;5038724;28;20173;-73
2022/07/09 08:50:22;;;;;;;9.18;2.58;;;20.10;99.90;;;;;;5046658;28;20214;-76
2022/07/09 08:52:51;;;;;;;5.70;2.80;;;20.20;99.90;;;;;;5035607;28;20295;-74
2022/07/09 08:55:16;;;;;;;3.40;2.33;;;20.60;99.90;;;;;;5053741;28;20206;-73
2022/07/09 08:57:42;;;;;;;5.75;2.47;;;20.60;99.90;;;;;;5046274;28;20212;-73
2022/07/09 09:00:07;;;;;;;5.93;2.80;;;20.40;99.90;;;;;;5049652;28;20165;-73
2022/07/09 09:02:37;;;;;;;4.10;2.75;;;20.40;99.90;;;;;;5033187;28;20984;-72
2022/07/09 09:05:14;;;;;;;5.80;3.05;;;20.20;99.90;;;;;;5033610;28;20205;-72
2022/07/09 09:07:40;;;;;;;5.38;2.63;;;20.00;99.90;;;;;;5052461;28;20211;-73
2022/07/09 09:10:06;;;;;;;5.15;2.80;;;19.50;99.90;;;;;;5053409;28;20211;-72
2022/07/09 09:12:31;;;;;;;7.45;3.00;;;19.00;99.90;;;;;;5035272;28;20552;-72
2022/07/09 09:14:57;;;;;;;5.13;2.25;;;18.80;99.90;;;;;;5053890;28;20171;-73
2022/07/09 09:17:23;;;;;;;3.42;2.25;;;18.70;99.90;;;;;;5046480;28;20254;-73
2022/07/09 09:19:48;;;;;;;6.63;2.72;;;18.60;99.90;;;;;;5053245;28;20717;-73
2022/07/09 09:22:18;;;;;;;4.72;2.53;;;18.60;99.90;;;;;;5053236;28;20230;-73
2022/07/09 09:24:48;;;;;;;4.03;2.67;;;18.60;99.90;;;;;;5031945;28;20208;-74
2022/07/09 09:27:14;;;;;;;3.90;2.95;;;18.70;99.90;;;;;;5033644;28;20172;-75
2022/07/09 09:29:49;;;;;;;5.63;2.83;;;18.70;99.90;;;;;;5015242;28;20211;-73
2022/07/09 09:32:19;;;;;;;4.70;2.95;;;18.50;99.90;;;;;;5033018;28;20574;-73
2022/07/09 09:34:50;;;;;;;4.88;2.60;;;18.20;99.90;;;;;;5026640;28;20290;-73
2022/07/09 09:37:25;;;;;;;3.90;2.55;;;18.00;99.90;;;;;;5052793;28;20204;-73
2022/07/09 09:39:54;;;;;;;4.13;2.92;;;17.90;99.90;;;;;;5048470;28;20230;-74
2022/07/09 09:42:21;;;;;;;5.00;3.22;;;18.00;99.90;;;;;;5031534;28;20586;-72
2022/07/09 09:44:50;;;;;;;3.35;2.80;;;18.00;99.90;;;;;;5053550;28;20632;-73
2022/07/09 09:47:24;;;;;;;5.18;2.85;;;18.10;99.90;;;;;;5037414;28;20200;-73
2022/07/09 09:49:50;;;;;;;5.60;3.35;;;18.20;99.90;;;;;;5032947;28;20200;-73
2022/07/09 09:52:18;;;;;;;5.38;2.95;;;18.20;99.90;;;;;;5032566;28;20212;-72
2022/07/09 09:54:47;;;;;;;5.15;3.38;;;18.30;99.90;;;;;;5032661;28;20196;-71
2022/07/09 09:57:13;;;;;;;6.35;3.67;;;18.50;99.90;;;;;;5015605;28;20168;-73
2022/07/09 09:59:40;;;;;;;6.90;4.55;;;18.80;99.90;;;;;;5040466;28;20564;-73
2022/07/09 10:02:09;;;;;;;6.30;4.05;;;19.20;99.90;;;;;;5046441;28;20289;-74
2022/07/09 10:04:40;;;;;;;10.15;5.20;;;19.60;99.90;;;;;;5052348;28;20273;-73
2022/07/09 10:07:10;;;;;;;5.90;3.55;;;20.00;99.90;;;;;;5046202;28;20207;-73
2022/07/09 10:09:35;;;;;;;5.45;3.47;;;20.40;99.90;;;;;;5050360;28;20198;-71
2022/07/09 10:12:01;;;;;;;5.88;3.13;;;20.80;99.90;;;;;;5044743;28;20191;-73
2022/07/09 10:14:27;;;;;;;6.82;3.80;;;21.10;99.90;;;;;;5044098;28;20204;-75
2022/07/09 10:16:53;;;;;;;5.07;3.38;;;21.10;99.90;;;;;;5049872;28;20608;-72
2022/07/09 10:19:23;;;;;;;5.80;3.60;;;21.20;99.90;;;;;;5022942;28;20254;-71
2022/07/09 10:21:55;;;;;;;5.53;3.65;;;21.20;99.90;;;;;;5017610;28;20220;-72
2022/07/09 10:24:29;;;;;;;6.53;4.13;;;21.00;99.90;;;;;;5047761;28;20169;-74
2022/07/09 10:27:05;;;;;;;7.22;3.22;;;21.50;99.90;;;;;;5042012;28;20200;-72
2022/07/09 10:29:32;;;;;;;5.10;2.90;;;21.50;99.90;;;;;;5031788;28;20736;-74
2022/07/09 10:31:57;;;;;;;5.32;3.08;;;21.30;99.90;;;;;;5014409;28;20600;-73
2022/07/09 10:34:53;;;;;;;6.47;2.90;;;21.40;99.90;;;;;;5031715;28;20212;-74
2022/07/09 10:37:49;;;;;;;4.68;2.47;;;21.60;99.90;;;;;;5040445;28;20204;-74
2022/07/09 10:40:17;;;;;;;5.88;2.42;;;21.70;99.90;;;;;;5026674;28;20204;-74
2022/07/09 10:42:56;;;;;;;4.63;2.63;;;21.80;99.90;;;;;;5042951;28;20208;-73
2022/07/09 10:45:35;;;;;;;4.90;2.30;;;21.90;99.90;;;;;;5043304;28;20176;-72
2022/07/09 10:48:02;;;;;;;3.05;2.05;;;22.20;99.90;;;;;;5033438;28;20168;-73
2022/07/09 10:50:30;;;;;;;4.60;2.72;;;22.50;99.90;;;;;;5031295;28;20216;-73
2022/07/09 10:52:56;;;;;;;5.03;2.50;;;22.80;99.90;;;;;;5031589;28;20728;-72
2022/07/09 10:55:24;;;;;;;4.28;2.30;;;22.60;99.90;;;;;;5013420;28;20200;-73
2022/07/09 10:57:51;;;;;;;5.75;2.60;;;22.40;99.90;;;;;;5031243;28;20223;-71
2022/07/09 11:00:18;;;;;;;6.07;2.70;;;22.50;99.90;;;;;;5033960;28;20187;-74
2022/07/09 11:03:04;;;;;;;3.17;2.20;;;22.70;99.90;;;;;;5034388;28;20265;-74
2022/07/09 11:05:43;;;;;;;4.60;2.47;;;22.60;99.90;;;;;;5033163;28;20215;-75
2022/07/09 11:08:09;;;;;;;3.45;2.13;;;22.80;99.90;;;;;;5045826;28;20344;-76
2022/07/09 11:10:36;;;;;;;4.05;1.80;;;22.70;99.90;;;;;;5032706;28;20228;-71
2022/07/09 11:13:02;;;;;;;5.28;2.60;;;22.70;99.90;;;;;;5031247;28;20204;-72
2022/07/09 11:15:33;;;;;;;4.35;2.45;;;22.40;99.90;;;;;;5029976;28;20176;-73
2022/07/09 11:18:10;;;;;;;4.55;2.10;;;22.70;99.90;;;;;;5031860;28;20172;-73
2022/07/09 11:20:44;;;;;;;3.63;2.13;;;22.60;99.90;;;;;;5013160;28;20215;-73
2022/07/09 11:23:11;;;;;;;3.55;1.85;;;22.60;99.90;;;;;;5031118;28;20211;-73
2022/07/09 11:25:37;;;;;;;5.10;1.90;;;22.40;99.90;;;;;;5049617;28;20204;-73
2022/07/09 11:28:03;;;;;;;4.43;2.00;;;22.70;99.90;;;;;;5033005;28;20265;-76
2022/07/09 11:30:30;;;;;;;3.90;1.90;;;22.80;99.90;;;;;;5050800;28;20254;-73
2022/07/09 11:32:56;;;;;;;5.85;1.85;;;23.00;99.90;;;;;;5046670;28;20238;-72
2022/07/09 11:35:32;;;;;;;4.20;1.90;;;23.10;99.90;;;;;;5030758;28;20208;-73
2022/07/09 11:38:01;;;;;;;2.17;1.70;;;23.10;99.90;;;;;;5012942;28;20290;-73
2022/07/09 11:40:27;;;;;;;2.22;1.65;;;22.90;99.90;;;;;;5021706;28;20208;-73
2022/07/09 11:42:53;;;;;;;3.88;1.98;;;22.70;99.90;;;;;;5050453;28;20269;-73
2022/07/09 11:45:24;;;;;;;2.42;1.83;;;22.60;99.90;;;;;;5051327;28;20237;-74
2022/07/09 11:47:49;;;;;;;3.45;1.80;;;22.40;99.90;;;;;;5022291;28;20196;-73
2022/07/09 11:50:18;;;;;;;2.78;2.00;;;22.20;99.90;;;;;;5030500;28;20204;-73
2022/07/09 11:52:50;;;;;;;2.88;2.00;;;21.90;99.90;;;;;;5030095;28;20690;-72
2022/07/09 11:55:18;;;;;;;3.65;1.95;;;21.70;99.90;;;;;;5030297;28;20716;-74
2022/07/09 11:58:05;;;;;;;3.67;1.95;;;21.70;99.90;;;;;;5050081;28;20294;-75
2022/07/09 12:00:33;;;;;;;3.83;2.00;;;21.90;99.90;;;;;;5024974;28;20561;-74
2022/07/09 12:03:01;;;;;;;4.03;2.50;;;21.90;99.90;;;;;;5031304;28;20188;-74
2022/07/09 12:05:39;;;;;;;4.60;1.90;;;22.00;99.90;;;;;;5030478;28;20246;-73
2022/07/09 12:08:06;;;;;;;3.10;1.70;;;22.10;99.90;;;;;;5012777;28;20295;-74
2022/07/09 12:10:34;;;;;;;5.13;3.53;;;22.10;99.90;;;;;;5022913;28;20211;-74
2022/07/09 12:13:00;;;;;;;2.97;2.35;;;22.00;99.90;;;;;;5050282;28;20256;-73
2022/07/09 12:15:27;;;;;;;2.55;1.60;;;22.10;99.90;;;;;;5050622;28;20176;-73
2022/07/09 12:17:54;;;;;;;3.35;1.58;;;21.90;99.90;;;;;;5039528;28;20221;-72
2022/07/09 12:20:21;;;;;;;2.83;1.70;;;21.80;99.90;;;;;;5030172;28;20227;-74
2022/07/09 12:22:47;;;;;;;4.07;2.13;;;21.80;99.90;;;;;;5030393;28;20212;-73
2022/07/09 12:25:13;;;;;;;2.83;2.17;;;21.80;99.90;;;;;;5030847;28;20231;-73
2022/07/09 12:27:39;;;;;;;2.67;1.80;;;21.70;99.90;;;;;;5034009;28;21247;-73
2022/07/09 12:30:05;;;;;;;3.17;1.60;;;21.50;99.90;;;;;;5034764;28;20172;-73
2022/07/09 12:32:31;;;;;;;6.65;4.65;;;21.60;99.90;;;;;;5016292;28;20270;-74
2022/07/09 12:34:57;;;;;;;4.18;2.45;;;21.80;99.90;;;;;;5016516;28;20223;-73
2022/07/09 12:37:22;;;;;;;4.65;2.38;;;21.60;99.90;;;;;;5034930;28;20249;-74
2022/07/09 12:39:49;;;;;;;4.05;2.00;;;21.20;99.90;;;;;;5034157;28;20262;-73
2022/07/09 12:42:15;;;;;;;9.35;6.13;;;20.30;99.90;;;;;;5034618;28;20295;-74
2022/07/09 12:44:40;;;;;;;3.63;2.90;;;19.90;99.90;;;;;;5045122;28;20421;-73